Time;durP1;ratioP1;P1;durP2;ratioP2;P2;SDS_P1;SDS_P2;PMS_P1;PMS_P2;Temp;Humidity;BMP_temperature;BMP_pressure;BME280_temperature;BME280_humidity;BME280_pressure;Samples;Min_cycle;Max_cycle;Signal;HPM_P1;HPM_P2
2023/10/25 00:02:17;;;;;;;35.65;6.85;;;18.90;99.90;;;;;;6217770;23;20016;-79
2023/10/25 00:04:45;;;;;;;27.13;4.88;;;18.80;99.90;;;;;;6219470;23;20015;-79
2023/10/25 00:07:13;;;;;;;31.35;4.68;;;18.80;99.90;;;;;;6185205;23;20095;-79
2023/10/25 00:09:40;;;;;;;26.10;5.00;;;18.80;99.90;;;;;;6211996;23;20031;-78
2023/10/25 00:12:08;;;;;;;29.58;5.47;;;18.80;99.90;;;;;;6185002;23;20021;-78
2023/10/25 00:14:35;;;;;;;32.42;5.38;;;18.70;99.90;;;;;;6210272;23;20032;-81
2023/10/25 00:17:03;;;;;;;23.35;5.13;;;18.60;99.90;;;;;;6222514;23;20029;-79
2023/10/25 00:19:30;;;;;;;19.52;4.68;;;18.50;99.90;;;;;;6224643;23;20016;-80
2023/10/25 00:21:59;;;;;;;25.30;5.43;;;18.40;99.90;;;;;;6221694;23;20095;-78
2023/10/25 00:24:26;;;;;;;25.95;5.25;;;18.30;99.90;;;;;;6226317;23;20029;-80
2023/10/25 00:26:53;;;;;;;25.42;4.75;;;18.20;99.90;;;;;;6216362;23;20086;-79
2023/10/25 00:29:21;;;;;;;24.75;4.75;;;18.10;99.90;;;;;;6217836;23;20441;-79
2023/10/25 00:31:48;;;;;;;26.15;5.15;;;18.10;1.00;;;;;;6185178;23;20047;-78
2023/10/25 00:34:15;;;;;;;25.83;5.40;;;18.00;1.00;;;;;;6223055;23;20023;-78
2023/10/25 00:36:43;;;;;;;21.98;5.15;;;17.90;1.00;;;;;;6212691;23;20028;-80
2023/10/25 00:39:11;;;;;;;25.08;4.60;;;17.90;1.00;;;;;;6185525;23;20021;-79
2023/10/25 00:41:39;;;;;;;28.10;4.80;;;17.80;1.00;;;;;;6217910;23;20023;-80
2023/10/25 00:44:07;;;;;;;23.48;4.65;;;17.70;1.00;;;;;;6184848;23;20020;-80
2023/10/25 00:46:35;;;;;;;24.45;4.78;;;17.60;1.00;;;;;;6184884;23;20016;-79
2023/10/25 00:49:03;;;;;;;30.77;5.47;;;17.50;1.00;;;;;;6221734;23;20024;-78
2023/10/25 00:51:31;;;;;;;23.75;4.75;;;17.40;1.00;;;;;;6213406;23;20028;-79
2023/10/25 00:54:02;;;;;;;33.65;5.72;;;17.30;99.90;;;;;;6215722;23;20025;-80
2023/10/25 00:56:32;;;;;;;23.13;4.95;;;17.30;99.90;;;;;;6185426;23;20032;-79
2023/10/25 00:59:00;;;;;;;29.77;4.97;;;17.30;99.90;;;;;;6219281;23;20075;-79
2023/10/25 01:01:30;;;;;;;27.00;4.22;;;17.30;99.90;;;;;;6185918;23;20456;-80
2023/10/25 01:03:57;;;;;;;23.58;4.10;;;17.20;99.90;;;;;;6211003;23;20096;-78
2023/10/25 01:06:25;;;;;;;24.25;5.25;;;17.10;99.90;;;;;;6186520;23;20040;-78
2023/10/25 01:08:53;;;;;;;26.17;4.63;;;17.00;1.00;;;;;;6217499;23;20028;-79
2023/10/25 01:11:20;;;;;;;24.17;4.95;;;16.90;1.00;;;;;;6185639;23;20078;-80
2023/10/25 01:13:49;;;;;;;28.95;5.03;;;16.70;19.90;;;;;;6221143;23;20071;-80
2023/10/25 01:16:16;;;;;;;32.08;7.40;;;16.60;99.90;;;;;;6221906;23;20024;-78
2023/10/25 01:18:44;;;;;;;27.10;6.45;;;16.60;99.90;;;;;;6184569;23;20059;-79
2023/10/25 01:21:11;;;;;;;24.25;4.78;;;16.60;99.90;;;;;;6214320;23;20016;-77
2023/10/25 01:23:40;;;;;;;25.63;4.50;;;16.60;99.90;;;;;;6185361;23;20393;-77
2023/10/25 01:26:07;;;;;;;26.35;4.75;;;16.60;1.00;;;;;;6218668;23;20326;-78
2023/10/25 01:28:34;;;;;;;26.45;4.55;;;16.50;1.00;;;;;;6219966;23;20082;-77
2023/10/25 01:31:02;;;;;;;23.88;4.47;;;16.40;1.00;;;;;;6185426;23;20021;-79
2023/10/25 01:33:29;;;;;;;27.55;4.43;;;16.50;1.00;;;;;;6185020;23;20020;-78
2023/10/25 01:35:57;;;;;;;21.80;4.10;;;16.50;1.00;;;;;;6216689;23;20108;-80
2023/10/25 01:38:24;;;;;;;25.67;4.63;;;16.60;1.00;;;;;;6184219;23;20092;-77
2023/10/25 01:40:53;;;;;;;29.08;5.25;;;16.50;1.00;;;;;;6220802;23;20037;-77
2023/10/25 01:43:21;;;;;;;27.60;4.28;;;16.50;1.00;;;;;;6236949;23;20009;-80
2023/10/25 01:45:48;;;;;;;27.27;4.97;;;16.50;62.70;;;;;;6207843;23;20029;-79
2023/10/25 01:48:16;;;;;;;25.95;4.50;;;16.50;99.90;;;;;;6236096;23;20034;-78
2023/10/25 01:50:47;;;;;;;24.13;4.60;;;16.60;45.80;;;;;;6206876;23;20021;-78
2023/10/25 01:53:14;;;;;;;22.92;4.80;;;16.60;1.00;;;;;;6236678;23;20024;-78
2023/10/25 01:55:42;;;;;;;21.75;5.07;;;16.60;1.00;;;;;;6206999;23;20040;-79
2023/10/25 01:58:10;;;;;;;22.73;4.82;;;16.50;96.50;;;;;;6207466;23;20012;-79
2023/10/25 02:00:39;;;;;;;28.23;5.15;;;16.50;99.90;;;;;;6206647;23;20025;-79
2023/10/25 02:03:07;;;;;;;22.15;3.97;;;16.50;99.90;;;;;;6207680;23;20021;-78
2023/10/25 02:05:34;;;;;;;23.60;4.30;;;16.50;1.00;;;;;;6239315;23;20037;-78
2023/10/25 02:08:02;;;;;;;22.58;5.55;;;16.60;1.00;;;;;;6202012;23;20020;-79
2023/10/25 02:10:29;;;;;;;19.25;4.47;;;16.70;99.90;;;;;;6235818;23;20043;-78
2023/10/25 02:12:56;;;;;;;20.08;4.90;;;16.70;99.90;;;;;;6229173;23;20036;-77
2023/10/25 02:15:26;;;;;;;21.23;5.10;;;16.80;99.90;;;;;;6218186;23;20028;-78
2023/10/25 02:17:53;;;;;;;24.00;5.05;;;16.80;99.90;;;;;;6184468;23;20045;-79
2023/10/25 02:20:20;;;;;;;24.90;4.82;;;16.90;1.00;;;;;;6183366;23;20502;-79
2023/10/25 02:22:48;;;;;;;20.77;4.47;;;16.90;1.00;;;;;;6183794;23;20383;-76
2023/10/25 02:25:16;;;;;;;19.20;5.07;;;16.70;1.00;;;;;;6185332;23;20024;-77
2023/10/25 02:27:43;;;;;;;22.13;4.55;;;16.60;99.90;;;;;;6212373;23;20032;-79
2023/10/25 02:30:12;;;;;;;22.42;4.38;;;16.50;99.90;;;;;;6189472;23;20021;-78
2023/10/25 02:32:41;;;;;;;16.25;4.22;;;16.50;99.90;;;;;;6230998;23;20045;-77
2023/10/25 02:35:09;;;;;;;25.10;4.40;;;16.50;47.80;;;;;;6191069;23;20048;-75
2023/10/25 02:37:37;;;;;;;17.98;4.10;;;16.50;99.90;;;;;;6221663;23;20095;-78
2023/10/25 02:40:05;;;;;;;18.48;3.83;;;16.50;1.00;;;;;;6220880;23;20012;-78
2023/10/25 02:42:33;;;;;;;17.85;4.30;;;16.50;1.00;;;;;;6212660;23;20024;-77
2023/10/25 02:45:01;;;;;;;19.75;4.10;;;16.50;1.00;;;;;;6214538;23;20055;-78
2023/10/25 02:47:28;;;;;;;23.20;5.00;;;16.60;99.90;;;;;;6217173;23;20040;-76
2023/10/25 02:49:57;;;;;;;29.75;5.90;;;16.60;1.00;;;;;;6184078;23;20353;-78
2023/10/25 02:52:25;;;;;;;29.98;7.00;;;16.60;99.90;;;;;;6211544;23;20562;-79
2023/10/25 02:54:55;;;;;;;28.88;5.15;;;16.50;99.90;;;;;;6184852;23;20021;-76
2023/10/25 02:57:22;;;;;;;27.52;4.97;;;16.20;99.90;;;;;;6184883;23;20071;-78
2023/10/25 02:59:51;;;;;;;33.25;7.05;;;16.00;99.90;;;;;;6215965;23;20103;-77
2023/10/25 03:02:20;;;;;;;24.90;5.53;;;15.90;99.90;;;;;;6217784;23;20589;-79
2023/10/25 03:04:49;;;;;;;24.73;5.75;;;15.90;99.90;;;;;;6230119;23;20016;-78
2023/10/25 03:07:18;;;;;;;23.25;5.75;;;15.90;99.90;;;;;;6212544;22;20028;-77
2023/10/25 03:09:46;;;;;;;25.15;6.43;;;15.80;99.90;;;;;;6237967;23;20025;-79
2023/10/25 03:12:15;;;;;;;25.48;6.10;;;15.80;99.90;;;;;;6194411;23;20025;-79
2023/10/25 03:14:42;;;;;;;25.15;6.43;;;15.80;99.90;;;;;;6217038;23;20041;-80
2023/10/25 03:17:10;;;;;;;24.13;5.97;;;15.80;99.90;;;;;;6219402;23;20055;-80
2023/10/25 03:19:39;;;;;;;24.08;6.55;;;15.70;99.90;;;;;;6185348;23;20044;-78
2023/10/25 03:22:07;;;;;;;24.40;6.35;;;15.70;99.90;;;;;;6223792;23;20012;-80
2023/10/25 03:24:35;;;;;;;25.85;6.45;;;15.60;99.90;;;;;;6213518;23;20024;-79
2023/10/25 03:27:03;;;;;;;23.52;6.38;;;15.50;99.90;;;;;;6215163;23;20484;-80
2023/10/25 03:29:30;;;;;;;23.33;7.07;;;15.40;99.90;;;;;;6216820;23;20028;-78
2023/10/25 03:32:00;;;;;;;26.33;6.85;;;15.30;99.90;;;;;;6218773;23;20410;-77
2023/10/25 03:34:27;;;;;;;21.83;6.95;;;15.30;99.90;;;;;;6221152;23;20043;-80
2023/10/25 03:36:55;;;;;;;22.27;7.82;;;15.40;99.90;;;;;;6210744;23;20024;-80
2023/10/25 03:39:23;;;;;;;28.27;8.73;;;15.40;99.90;;;;;;6212542;23;20063;-79
2023/10/25 03:41:55;;;;;;;23.58;7.82;;;15.40;99.90;;;;;;6184087;23;20084;-79
2023/10/25 03:44:23;;;;;;;26.23;7.70;;;15.30;99.90;;;;;;6217758;23;20083;-79
2023/10/25 03:46:50;;;;;;;22.80;8.10;;;15.20;99.90;;;;;;6219623;23;20008;-79
2023/10/25 03:49:18;;;;;;;24.55;6.82;;;15.10;99.90;;;;;;6184536;23;20029;-79
2023/10/25 03:51:45;;;;;;;19.38;5.68;;;15.10;99.90;;;;;;6183775;23;20031;-79
2023/10/25 03:54:12;;;;;;;21.00;6.07;;;15.10;99.90;;;;;;6185317;23;20025;-81
2023/10/25 03:56:42;;;;;;;29.85;8.32;;;15.20;99.90;;;;;;6186816;23;20029;-79
2023/10/25 03:59:11;;;;;;;18.98;7.80;;;15.20;99.90;;;;;;6188594;23;20308;-81
2023/10/25 04:01:40;;;;;;;22.05;7.10;;;15.20;99.90;;;;;;6196803;23;20017;-80
2023/10/25 04:04:09;;;;;;;23.90;6.90;;;15.20;99.90;;;;;;6226303;23;20067;-78
2023/10/25 04:06:37;;;;;;;17.80;6.90;;;15.20;99.90;;;;;;6214691;23;20035;-81
2023/10/25 04:09:05;;;;;;;20.65;6.20;;;15.10;99.90;;;;;;6215751;23;20032;-80
2023/10/25 04:11:33;;;;;;;19.08;6.38;;;15.00;99.90;;;;;;6218606;23;20027;-79
2023/10/25 04:14:01;;;;;;;22.55;7.22;;;15.00;99.90;;;;;;6187293;23;20032;-79
2023/10/25 04:16:30;;;;;;;15.38;5.90;;;14.90;99.90;;;;;;6190501;23;20382;-79
2023/10/25 04:18:57;;;;;;;18.33;7.47;;;14.80;99.90;;;;;;6191216;23;20021;-79
2023/10/25 04:21:25;;;;;;;20.58;7.47;;;14.70;99.90;;;;;;6213927;23;20044;-78
2023/10/25 04:23:52;;;;;;;20.90;6.57;;;14.70;99.90;;;;;;6216157;23;20047;-78
2023/10/25 04:26:20;;;;;;;18.30;5.82;;;14.80;99.90;;;;;;6218497;23;20040;-80
2023/10/25 04:28:47;;;;;;;19.40;6.10;;;14.90;99.90;;;;;;6220975;23;20100;-80
2023/10/25 04:31:16;;;;;;;20.35;5.68;;;14.80;99.90;;;;;;6222636;23;20333;-78
2023/10/25 04:33:45;;;;;;;16.38;5.22;;;14.80;99.90;;;;;;6212931;23;20055;-78
2023/10/25 04:36:13;;;;;;;12.85;3.97;;;14.80;99.90;;;;;;6214592;23;20107;-79
2023/10/25 04:38:41;;;;;;;12.88;3.60;;;14.80;99.90;;;;;;6184878;23;20017;-78
2023/10/25 04:41:09;;;;;;;12.40;4.10;;;14.80;99.90;;;;;;6184859;23;20024;-81
2023/10/25 04:43:36;;;;;;;13.27;3.80;;;14.70;99.90;;;;;;6188590;23;20033;-79
2023/10/25 04:46:04;;;;;;;16.00;4.53;;;14.80;99.90;;;;;;6240730;23;20016;-80
2023/10/25 04:48:31;;;;;;;12.45;4.07;;;14.80;99.90;;;;;;6188485;23;20040;-79
2023/10/25 04:51:03;;;;;;;13.80;5.38;;;14.80;99.90;;;;;;6216827;23;20044;-80
2023/10/25 04:53:30;;;;;;;15.10;6.28;;;14.60;99.90;;;;;;6217879;23;20115;-79
2023/10/25 04:55:58;;;;;;;11.40;4.78;;;14.50;99.90;;;;;;6185833;23;20432;-80
2023/10/25 04:58:27;;;;;;;19.15;8.70;;;14.60;99.90;;;;;;6222175;23;20012;-79
2023/10/25 05:00:55;;;;;;;21.25;7.07;;;14.50;99.90;;;;;;6212320;23;20021;-79
2023/10/25 05:03:24;;;;;;;14.50;7.43;;;14.50;99.90;;;;;;6213920;23;20048;-79
2023/10/25 05:05:51;;;;;;;19.55;7.65;;;14.60;99.90;;;;;;6216447;23;20041;-78
2023/10/25 05:08:22;;;;;;;15.85;5.47;;;14.60;99.90;;;;;;6184008;23;20553;-80
2023/10/25 05:10:54;;;;;;;12.63;4.82;;;14.50;99.90;;;;;;6220237;23;20043;-78
2023/10/25 05:13:22;;;;;;;16.70;6.60;;;14.50;99.90;;;;;;6222099;23;20591;-78
2023/10/25 05:15:50;;;;;;;28.50;15.15;;;14.50;99.90;;;;;;6184674;23;20104;-79
2023/10/25 05:18:18;;;;;;;31.90;15.25;;;14.60;99.90;;;;;;6184391;23;20390;-79
2023/10/25 05:20:46;;;;;;;27.75;14.85;;;14.50;99.90;;;;;;6184290;23;20043;-79
2023/10/25 05:23:15;;;;;;;36.78;18.25;;;14.50;99.90;;;;;;6217937;23;20024;-80
2023/10/25 05:25:44;;;;;;;33.58;17.75;;;14.50;99.90;;;;;;6220918;23;20020;-81
2023/10/25 05:28:13;;;;;;;30.75;16.85;;;14.50;99.90;;;;;;6221757;23;20017;-79
2023/10/25 05:30:41;;;;;;;24.65;13.88;;;14.60;99.90;;;;;;6184398;23;20035;-81
2023/10/25 05:33:09;;;;;;;30.27;13.38;;;14.60;99.90;;;;;;6214799;23;20047;-81
2023/10/25 05:35:37;;;;;;;37.72;14.25;;;14.70;99.90;;;;;;6216315;23;20104;-80
2023/10/25 05:38:06;;;;;;;26.58;13.52;;;14.70;99.90;;;;;;6218906;23;20078;-79
2023/10/25 05:40:34;;;;;;;25.13;13.50;;;14.70;99.90;;;;;;6220968;23;20020;-79
2023/10/25 05:43:08;;;;;;;28.85;12.93;;;14.70;99.90;;;;;;6221997;23;20066;-78
2023/10/25 05:45:36;;;;;;;30.90;15.82;;;14.80;99.90;;;;;;6212744;23;20464;-78
2023/10/25 05:48:04;;;;;;;22.58;14.25;;;14.80;99.90;;;;;;6214948;23;20024;-79
2023/10/25 05:50:32;;;;;;;23.45;14.32;;;14.80;99.90;;;;;;6216365;23;20083;-79
2023/10/25 05:53:01;;;;;;;22.80;12.32;;;14.80;99.90;;;;;;6184207;23;20028;-78
2023/10/25 05:55:29;;;;;;;21.70;11.52;;;14.80;99.90;;;;;;6185780;23;20556;-79
2023/10/25 05:57:56;;;;;;;23.92;11.75;;;14.80;99.90;;;;;;6184126;23;20048;-77
2023/10/25 06:00:26;;;;;;;21.92;11.68;;;14.90;99.90;;;;;;6183853;23;20033;-79
2023/10/25 06:02:56;;;;;;;22.48;10.85;;;14.90;99.90;;;;;;6215781;23;20020;-79
2023/10/25 06:05:25;;;;;;;18.35;10.00;;;14.90;99.90;;;;;;6217747;23;20051;-79
2023/10/25 06:07:54;;;;;;;22.52;11.98;;;14.90;99.90;;;;;;6220065;23;20397;-79
2023/10/25 06:10:22;;;;;;;29.63;17.30;;;15.00;99.90;;;;;;6184823;23;20054;-79
2023/10/25 06:12:50;;;;;;;29.80;16.50;;;15.10;99.90;;;;;;6211761;23;20437;-80
2023/10/25 06:15:18;;;;;;;23.77;14.23;;;15.40;99.90;;;;;;6213462;23;20021;-78
2023/10/25 06:17:46;;;;;;;27.52;12.65;;;15.60;99.90;;;;;;6215300;23;20103;-80
2023/10/25 06:20:19;;;;;;;21.63;12.50;;;15.80;99.90;;;;;;6217013;23;20088;-80
2023/10/25 06:22:47;;;;;;;26.48;13.27;;;16.20;99.90;;;;;;6219530;23;20336;-80
2023/10/25 06:25:14;;;;;;;18.35;9.57;;;16.50;99.90;;;;;;6184945;23;20020;-78
2023/10/25 06:27:42;;;;;;;13.80;8.80;;;16.70;99.90;;;;;;6212298;23;20055;-80
2023/10/25 06:30:10;;;;;;;19.50;12.05;;;17.10;99.90;;;;;;6213222;23;20032;-80
2023/10/25 06:32:38;;;;;;;19.20;9.25;;;17.00;99.90;;;;;;6216446;23;20079;-81
2023/10/25 06:35:09;;;;;;;15.73;7.72;;;17.30;99.90;;;;;;6184694;23;20024;-82
2023/10/25 06:37:37;;;;;;;16.63;8.50;;;17.60;99.90;;;;;;6184182;23;20063;-82
2023/10/25 06:40:06;;;;;;;19.75;10.02;;;17.90;99.90;;;;;;6221211;23;20013;-79
2023/10/25 06:42:34;;;;;;;12.93;7.85;;;17.90;1.00;;;;;;6211477;23;20023;-79
2023/10/25 06:45:02;;;;;;;18.17;8.70;;;18.40;1.00;;;;;;6214388;23;20483;-81
2023/10/25 06:47:31;;;;;;;16.40;7.93;;;18.70;1.00;;;;;;6216839;23;20087;-81
2023/10/25 06:49:59;;;;;;;18.35;8.43;;;19.00;1.00;;;;;;6219658;23;20452;-82
2023/10/25 06:52:28;;;;;;;14.75;7.25;;;19.20;1.00;;;;;;6186688;23;20481;-80
2023/10/25 06:54:56;;;;;;;15.85;7.00;;;19.30;99.90;;;;;;6186419;23;20078;-82
2023/10/25 06:57:24;;;;;;;15.23;7.03;;;19.10;1.00;;;;;;6187769;23;20021;-78
2023/10/25 06:59:52;;;;;;;14.30;7.38;;;18.90;1.00;;;;;;6224588;23;20021;-80
2023/10/25 07:02:37;;;;;;;18.92;10.25;;;18.90;99.90;;;;;;6219226;23;20431;-78
2023/10/25 07:05:11;;;;;;;15.85;6.32;;;19.20;1.00;;;;;;6219851;23;20036;-80
2023/10/25 07:07:43;;;;;;;12.77;6.38;;;19.20;99.90;;;;;;6221262;23;20027;-80
2023/10/25 07:10:12;;;;;;;14.18;5.90;;;19.30;1.00;;;;;;6221548;23;20019;-80
2023/10/25 07:12:40;;;;;;;13.80;5.68;;;19.30;1.00;;;;;;6212955;23;20033;-80
2023/10/25 07:15:09;;;;;;;11.73;5.60;;;19.20;43.70;;;;;;6218079;23;20028;-80
2023/10/25 07:17:37;;;;;;;15.07;5.75;;;19.30;1.00;;;;;;6221393;23;20453;-81
2023/10/25 07:20:07;;;;;;;13.10;6.38;;;19.60;1.00;;;;;;6220200;23;20480;-79
2023/10/25 07:22:35;;;;;;;14.13;6.65;;;19.80;39.10;;;;;;6185081;23;20510;-79
2023/10/25 07:25:04;;;;;;;17.63;8.85;;;19.90;1.00;;;;;;6222693;23;20016;-80
2023/10/25 07:27:32;;;;;;;24.52;11.27;;;20.10;99.90;;;;;;6221584;23;20039;-79
2023/10/25 07:30:00;;;;;;;18.23;10.38;;;20.10;1.00;;;;;;6229951;23;20021;-80
2023/10/25 07:32:27;;;;;;;10.93;7.07;;;20.10;99.90;;;;;;6232066;23;20035;-79
2023/10/25 07:34:55;;;;;;;17.35;11.25;;;20.00;99.90;;;;;;6239325;23;20021;-79
2023/10/25 07:37:22;;;;;;;13.27;5.20;;;20.00;1.00;;;;;;6233340;23;20084;-80
2023/10/25 07:39:49;;;;;;;15.95;6.65;;;20.00;22.30;;;;;;6221643;23;20044;-78
2023/10/25 07:42:18;;;;;;;13.95;4.63;;;20.10;1.00;;;;;;6235078;23;20035;-78
2023/10/25 07:44:46;;;;;;;12.50;5.68;;;20.30;99.90;;;;;;6236272;23;20012;-78
2023/10/25 07:47:14;;;;;;;9.48;5.07;;;20.40;1.00;;;;;;6242204;23;20028;-78
2023/10/25 07:49:45;;;;;;;10.25;4.25;;;20.50;1.00;;;;;;6190567;23;20866;-79
2023/10/25 07:52:13;;;;;;;13.30;6.15;;;20.50;1.00;;;;;;6188991;23;20013;-79
2023/10/25 07:54:40;;;;;;;18.15;10.93;;;20.30;1.00;;;;;;6215654;23;20025;-81
2023/10/25 07:57:08;;;;;;;12.07;4.65;;;20.10;1.00;;;;;;6187993;23;20048;-78
2023/10/25 07:59:37;;;;;;;16.95;10.13;;;19.90;1.00;;;;;;6219977;23;20035;-78
2023/10/25 08:02:05;;;;;;;16.15;9.38;;;19.70;1.00;;;;;;6221661;23;20520;-79
2023/10/25 08:04:32;;;;;;;20.33;10.15;;;19.60;1.00;;;;;;6223592;23;20460;-78
2023/10/25 08:07:00;;;;;;;12.68;8.07;;;19.50;1.00;;;;;;6223823;23;20092;-78
2023/10/25 08:09:27;;;;;;;19.63;8.15;;;19.40;1.00;;;;;;6214143;23;20091;-79
2023/10/25 08:11:55;;;;;;;21.42;12.45;;;19.40;1.00;;;;;;6217811;23;20625;-78
2023/10/25 08:14:22;;;;;;;15.40;8.60;;;19.40;1.00;;;;;;6219670;23;20913;-80
2023/10/25 08:16:51;;;;;;;18.80;8.27;;;19.40;1.00;;;;;;6186726;23;20410;-79
2023/10/25 08:19:19;;;;;;;16.25;8.73;;;19.60;1.00;;;;;;6222314;23;20040;-80
2023/10/25 08:21:47;;;;;;;9.95;5.05;;;19.70;99.90;;;;;;6213356;23;20240;-79
2023/10/25 08:24:14;;;;;;;13.57;5.03;;;19.90;1.00;;;;;;6215144;23;20027;-80
2023/10/25 08:26:42;;;;;;;14.27;5.75;;;20.10;1.00;;;;;;6185499;23;20036;-82
2023/10/25 08:29:10;;;;;;;11.57;4.47;;;20.30;1.00;;;;;;6219080;23;20047;-79
2023/10/25 08:31:38;;;;;;;13.10;4.53;;;20.50;1.00;;;;;;6221691;23;20019;-81
2023/10/25 08:34:08;;;;;;;14.68;5.13;;;20.70;1.00;;;;;;6223346;23;20020;-80
2023/10/25 08:36:37;;;;;;;13.32;4.97;;;20.90;1.00;;;;;;6213617;23;20025;-80
2023/10/25 08:39:05;;;;;;;11.27;4.20;;;21.10;1.00;;;;;;6214928;23;20028;-80
2023/10/25 08:41:34;;;;;;;11.68;2.60;;;21.30;1.00;;;;;;6218459;23;20024;-80
2023/10/25 08:44:02;;;;;;;10.73;3.10;;;21.60;99.90;;;;;;6185575;23;20601;-80
2023/10/25 08:46:31;;;;;;;9.68;3.92;;;21.70;99.90;;;;;;6185488;23;20147;-81
2023/10/25 08:48:59;;;;;;;10.63;4.15;;;21.80;99.90;;;;;;6211987;23;20024;-82
2023/10/25 08:51:28;;;;;;;10.95;4.03;;;21.90;99.90;;;;;;6185773;23;20485;-80
2023/10/25 08:54:00;;;;;;;10.32;2.80;;;22.10;99.90;;;;;;6216627;23;20495;-80
2023/10/25 08:56:28;;;;;;;4.70;2.33;;;22.30;99.90;;;;;;6218138;23;20032;-80
2023/10/25 08:58:59;;;;;;;4.85;1.70;;;22.30;99.90;;;;;;6219911;23;20115;-80
2023/10/25 09:01:28;;;;;;;9.55;2.53;;;22.30;99.90;;;;;;6222333;23;20016;-79
2023/10/25 09:03:56;;;;;;;13.05;4.05;;;22.30;1.00;;;;;;6212511;23;20021;-80
2023/10/25 09:06:28;;;;;;;10.38;3.28;;;22.20;99.90;;;;;;6185090;23;20082;-80
2023/10/25 09:09:02;;;;;;;10.20;2.95;;;22.30;99.90;;;;;;6215518;23;20059;-81
2023/10/25 09:11:39;;;;;;;12.23;4.97;;;22.20;1.00;;;;;;6218402;23;20020;-81
2023/10/25 09:14:07;;;;;;;12.35;5.30;;;22.10;1.00;;;;;;6188768;23;20429;-79
2023/10/25 09:16:35;;;;;;;12.60;5.13;;;22.00;1.00;;;;;;6186950;23;20023;-80
2023/10/25 09:19:03;;;;;;;8.40;2.05;;;21.90;1.00;;;;;;6222964;23;20091;-81
2023/10/25 09:21:33;;;;;;;8.20;1.90;;;22.00;1.00;;;;;;6215076;23;20032;-81
2023/10/25 09:24:02;;;;;;;7.22;1.77;;;22.00;1.00;;;;;;6217756;23;20028;-81
2023/10/25 09:26:39;;;;;;;6.38;1.75;;;22.00;1.00;;;;;;6217911;23;20024;-81
2023/10/25 09:29:09;;;;;;;9.68;3.47;;;22.20;99.90;;;;;;6218090;23;20461;-81
2023/10/25 09:31:37;;;;;;;9.63;2.85;;;22.20;1.00;;;;;;6184625;23;20099;-82
2023/10/25 09:34:09;;;;;;;6.47;2.88;;;22.40;1.00;;;;;;6221522;23;20016;-80
2023/10/25 09:36:38;;;;;;;9.25;3.60;;;22.50;1.00;;;;;;6212906;23;20025;-80
2023/10/25 09:39:06;;;;;;;6.80;2.70;;;22.50;1.00;;;;;;6214884;23;20020;-81
2023/10/25 09:41:39;;;;;;;8.32;2.60;;;22.70;1.00;;;;;;6186473;23;20361;-79
2023/10/25 09:44:17;;;;;;;7.97;4.32;;;22.90;1.00;;;;;;6220017;23;20025;-82
2023/10/25 09:46:48;;;;;;;8.43;3.58;;;23.00;1.00;;;;;;6220674;23;20024;-82
2023/10/25 09:49:21;;;;;;;6.80;2.95;;;23.10;1.00;;;;;;6222080;23;20017;-82
2023/10/25 09:52:07;;;;;;;13.45;6.43;;;23.30;1.00;;;;;;6184132;23;20020;-81
2023/10/25 09:54:36;;;;;;;8.63;4.05;;;23.40;99.90;;;;;;6185879;23;20028;-83
2023/10/25 09:57:04;;;;;;;10.43;5.10;;;23.50;99.90;;;;;;6185414;23;20052;-81
2023/10/25 09:59:32;;;;;;;10.55;3.35;;;23.40;99.90;;;;;;6217305;23;20036;-80
2023/10/25 10:02:02;;;;;;;7.45;3.58;;;23.30;99.90;;;;;;6184910;23;20018;-83
2023/10/25 10:04:41;;;;;;;9.43;3.17;;;23.10;99.90;;;;;;6186150;23;20020;-83
2023/10/25 10:07:21;;;;;;;8.50;3.22;;;22.90;1.00;;;;;;6211697;23;20028;-82
2023/10/25 10:09:55;;;;;;;7.60;2.30;;;22.80;1.00;;;;;;6145191;23;20087;-82
2023/10/25 10:12:23;;;;;;;8.85;2.67;;;22.70;1.00;;;;;;6213774;23;20031;-84
2023/10/25 10:14:52;;;;;;;8.90;4.10;;;22.70;99.90;;;;;;6184462;23;20021;-84
2023/10/25 10:17:20;;;;;;;8.65;2.67;;;22.70;99.90;;;;;;6182931;23;20024;-79
2023/10/25 10:19:50;;;;;;;10.57;3.28;;;22.60;99.90;;;;;;6218689;23;20016;-80
2023/10/25 10:22:19;;;;;;;6.88;2.22;;;22.60;1.00;;;;;;6210139;23;20096;-81
2023/10/25 10:24:49;;;;;;;8.77;2.88;;;22.50;1.00;;;;;;6217105;23;20016;-82
2023/10/25 10:27:18;;;;;;;20.10;11.95;;;22.50;1.00;;;;;;6195195;23;20043;-83
2023/10/25 10:29:46;;;;;;;14.75;4.68;;;22.50;99.90;;;;;;6226538;23;20028;-83
2023/10/25 10:32:15;;;;;;;10.90;2.90;;;22.60;99.90;;;;;;6224198;23;20028;-82
2023/10/25 10:34:48;;;;;;;9.23;3.08;;;22.70;1.00;;;;;;6226886;23;20604;-85
2023/10/25 10:37:20;;;;;;;16.60;7.88;;;22.70;1.00;;;;;;6186202;23;20043;-82
2023/10/25 10:40:16;;;;;;;18.10;12.23;;;22.80;1.00;;;;;;6183989;23;20024;-82
2023/10/25 10:42:44;;;;;;;8.25;4.60;;;23.10;1.00;;;;;;6184912;23;20087;-81
2023/10/25 10:45:15;;;;;;;5.20;2.20;;;23.30;99.90;;;;;;6214627;23;20076;-80
2023/10/25 10:47:44;;;;;;;9.65;2.90;;;23.50;99.90;;;;;;6217806;23;20025;-80
2023/10/25 10:50:13;;;;;;;7.97;2.42;;;23.50;1.00;;;;;;6185164;23;20381;-80
2023/10/25 10:52:43;;;;;;;11.45;5.18;;;23.50;1.00;;;;;;6186818;23;20016;-81
2023/10/25 10:55:15;;;;;;;9.43;4.55;;;23.40;1.00;;;;;;6224543;23;20013;-82
2023/10/25 10:57:43;;;;;;;6.55;3.10;;;23.50;1.00;;;;;;6185662;23;20111;-83
2023/10/25 11:00:16;;;;;;;15.38;5.30;;;23.50;1.00;;;;;;6184151;23;20031;-80
2023/10/25 11:02:46;;;;;;;8.30;3.03;;;23.60;34.10;;;;;;6218203;23;20017;-80
2023/10/25 11:05:15;;;;;;;8.75;3.78;;;23.50;99.90;;;;;;6227271;23;20096;-81
2023/10/25 11:07:45;;;;;;;9.90;4.10;;;23.40;99.90;;;;;;6230340;23;20086;-82
2023/10/25 11:10:12;;;;;;;6.47;2.65;;;23.40;99.90;;;;;;6198676;23;20046;-81
2023/10/25 11:12:40;;;;;;;7.82;2.83;;;23.40;1.00;;;;;;6202666;23;20011;-81
2023/10/25 11:15:09;;;;;;;9.85;4.15;;;23.40;99.90;;;;;;6222162;23;20021;-82
2023/10/25 11:17:36;;;;;;;6.85;1.45;;;23.40;1.00;;;;;;6188350;23;20024;-82
2023/10/25 11:20:05;;;;;;;4.55;1.95;;;23.40;1.00;;;;;;6195735;23;20028;-81
2023/10/25 11:22:32;;;;;;;13.95;2.55;;;23.40;21.30;;;;;;6221507;23;20012;-82
2023/10/25 11:25:08;;;;;;;6.75;1.88;;;23.40;9.10;;;;;;6214484;23;20032;-81
2023/10/25 11:27:39;;;;;;;7.10;1.80;;;23.30;1.00;;;;;;6213617;23;20078;-80
2023/10/25 11:30:11;;;;;;;5.18;1.70;;;23.50;99.90;;;;;;6184226;23;20519;-81
2023/10/25 11:32:43;;;;;;;5.40;2.10;;;23.50;99.90;;;;;;6188432;23;20044;-82
2023/10/25 11:35:22;;;;;;;7.18;3.90;;;23.50;1.00;;;;;;6186040;23;20096;-81
2023/10/25 11:37:53;;;;;;;6.90;3.40;;;23.60;1.00;;;;;;6184527;23;20051;-82
2023/10/25 11:40:35;;;;;;;6.75;2.45;;;23.70;1.00;;;;;;6185425;23;20072;-81
2023/10/25 11:43:15;;;;;;;11.98;6.93;;;23.70;99.90;;;;;;6211166;23;20075;-83
2023/10/25 11:45:42;;;;;;;15.52;9.95;;;23.80;1.00;;;;;;6170633;23;20040;-79
2023/10/25 11:48:12;;;;;;;9.77;5.78;;;23.90;1.00;;;;;;6187378;23;20460;-78
2023/10/25 11:50:46;;;;;;;12.32;6.13;;;23.90;23.00;;;;;;6197248;23;20021;-79
2023/10/25 11:53:15;;;;;;;7.95;4.13;;;23.80;99.90;;;;;;6189104;23;20395;-79
2023/10/25 11:55:44;;;;;;;7.82;2.85;;;23.80;1.00;;;;;;6220385;23;20012;-79
2023/10/25 11:58:15;;;;;;;6.65;1.73;;;23.80;1.00;;;;;;6220927;23;20016;-80
2023/10/25 12:00:42;;;;;;;9.52;4.15;;;23.80;99.90;;;;;;6212158;23;20175;-80
2023/10/25 12:03:10;;;;;;;5.20;1.40;;;23.90;1.00;;;;;;6186179;23;20031;-79
2023/10/25 12:05:38;;;;;;;5.28;1.17;;;23.90;1.00;;;;;;6226022;23;20048;-81
2023/10/25 12:08:07;;;;;;;6.05;1.88;;;23.90;99.90;;;;;;6230889;23;20092;-82
2023/10/25 12:10:34;;;;;;;4.63;1.55;;;24.00;99.90;;;;;;6231817;23;20023;-80
2023/10/25 12:13:03;;;;;;;5.85;2.03;;;24.00;1.00;;;;;;6190988;23;20020;-80
2023/10/25 12:15:31;;;;;;;5.20;2.10;;;24.00;29.00;;;;;;6221665;23;20025;-81
2023/10/25 12:17:58;;;;;;;6.07;2.67;;;23.90;99.90;;;;;;6231012;23;20025;-79
2023/10/25 12:20:26;;;;;;;9.50;4.28;;;24.10;1.00;;;;;;6233558;23;20020;-78
2023/10/25 12:22:53;;;;;;;5.10;2.53;;;24.20;1.00;;;;;;6244380;22;20021;-80
2023/10/25 12:25:21;;;;;;;6.03;2.92;;;24.20;1.00;;;;;;6238236;23;20112;-79
2023/10/25 12:27:48;;;;;;;9.25;4.30;;;24.20;25.00;;;;;;6226956;23;20349;-81
2023/10/25 12:30:17;;;;;;;6.93;2.78;;;24.20;1.00;;;;;;6228243;23;20029;-81
2023/10/25 12:32:45;;;;;;;11.10;7.82;;;24.10;1.00;;;;;;6231834;23;20024;-80
2023/10/25 12:35:13;;;;;;;8.55;4.90;;;24.00;99.90;;;;;;6210252;23;20020;-80
2023/10/25 12:37:41;;;;;;;13.63;8.05;;;24.10;99.90;;;;;;6246903;23;20013;-80
2023/10/25 12:40:09;;;;;;;5.90;3.47;;;24.00;99.90;;;;;;6245558;23;20091;-80
2023/10/25 12:42:37;;;;;;;5.88;2.63;;;24.00;1.00;;;;;;6234306;23;20540;-80
2023/10/25 12:45:05;;;;;;;6.05;2.42;;;24.00;1.00;;;;;;6232526;23;20044;-79
2023/10/25 12:47:34;;;;;;;5.78;2.63;;;24.00;1.00;;;;;;6238879;23;20024;-79
2023/10/25 12:50:04;;;;;;;8.35;3.72;;;24.00;99.50;;;;;;6191885;23;20488;-80
2023/10/25 12:52:32;;;;;;;8.65;3.10;;;23.90;99.90;;;;;;6222567;23;20024;-80